sensor_id;sensor_type;location;lat;lon;timestamp;P1;durP1;ratioP1;P2;durP2;ratioP2
18322;SDS011;9287;49.456;11.064;2022-12-07T00:01:30;5.80;;;5.30;;
18322;SDS011;9287;49.456;11.064;2022-12-07T00:03:59;5.67;;;5.17;;
18322;SDS011;9287;49.456;11.064;2022-12-07T00:06:32;5.80;;;5.27;;
18322;SDS011;9287;49.456;11.064;2022-12-07T00:09:01;6.03;;;5.50;;
18322;SDS011;9287;49.456;11.064;2022-12-07T00:11:30;7.10;;;6.40;;
18322;SDS011;9287;49.456;11.064;2022-12-07T00:13:58;8.13;;;6.00;;
18322;SDS011;9287;49.456;11.064;2022-12-07T00:16:28;8.07;;;5.93;;
18322;SDS011;9287;49.456;11.064;2022-12-07T00:18:58;6.07;;;5.47;;
18322;SDS011;9287;49.456;11.064;2022-12-07T00:21:27;6.37;;;5.77;;
18322;SDS011;9287;49.456;11.064;2022-12-07T00:23:56;11.97;;;5.77;;
18322;SDS011;9287;49.456;11.064;2022-12-07T00:26:25;6.10;;;5.60;;
18322;SDS011;9287;49.456;11.064;2022-12-07T00:28:57;6.40;;;5.80;;
18322;SDS011;9287;49.456;11.064;2022-12-07T00:31:27;6.20;;;5.23;;
18322;SDS011;9287;49.456;11.064;2022-12-07T00:33:56;6.50;;;5.90;;
18322;SDS011;9287;49.456;11.064;2022-12-07T00:36:25;6.07;;;5.50;;
18322;SDS011;9287;49.456;11.064;2022-12-07T00:38:53;6.73;;;6.03;;
18322;SDS011;9287;49.456;11.064;2022-12-07T00:41:22;6.10;;;5.50;;
18322;SDS011;9287;49.456;11.064;2022-12-07T00:43:51;6.83;;;6.10;;
18322;SDS011;9287;49.456;11.064;2022-12-07T00:46:21;6.77;;;6.07;;
18322;SDS011;9287;49.456;11.064;2022-12-07T00:48:50;7.23;;;6.53;;
18322;SDS011;9287;49.456;11.064;2022-12-07T00:51:18;6.43;;;5.77;;
18322;SDS011;9287;49.456;11.064;2022-12-07T00:53:48;7.43;;;6.30;;
18322;SDS011;9287;49.456;11.064;2022-12-07T00:56:18;6.70;;;6.10;;
18322;SDS011;9287;49.456;11.064;2022-12-07T00:58:49;6.87;;;6.27;;
18322;SDS011;9287;49.456;11.064;2022-12-07T01:01:18;7.40;;;6.53;;
18322;SDS011;9287;49.456;11.064;2022-12-07T01:03:50;9.27;;;6.60;;
18322;SDS011;9287;49.456;11.064;2022-12-07T01:06:31;7.63;;;6.80;;
18322;SDS011;9287;49.456;11.064;2022-12-07T01:08:59;7.47;;;6.67;;
18322;SDS011;9287;49.456;11.064;2022-12-07T01:11:28;7.17;;;6.47;;
18322;SDS011;9287;49.456;11.064;2022-12-07T01:13:57;7.50;;;6.80;;
18322;SDS011;9287;49.456;11.064;2022-12-07T01:16:27;9.40;;;7.03;;
18322;SDS011;9287;49.456;11.064;2022-12-07T01:19:04;6.93;;;6.23;;
18322;SDS011;9287;49.456;11.064;2022-12-07T01:21:32;6.97;;;6.27;;
18322;SDS011;9287;49.456;11.064;2022-12-07T01:24:04;7.63;;;6.83;;
18322;SDS011;9287;49.456;11.064;2022-12-07T01:26:33;7.27;;;6.57;;
18322;SDS011;9287;49.456;11.064;2022-12-07T01:29:01;9.17;;;7.17;;
18322;SDS011;9287;49.456;11.064;2022-12-07T01:31:29;8.17;;;7.33;;
18322;SDS011;9287;49.456;11.064;2022-12-07T01:33:59;9.87;;;7.13;;
18322;SDS011;9287;49.456;11.064;2022-12-07T01:36:28;8.37;;;7.50;;
18322;SDS011;9287;49.456;11.064;2022-12-07T01:38:57;8.27;;;7.43;;
18322;SDS011;9287;49.456;11.064;2022-12-07T01:41:29;7.50;;;6.33;;
18322;SDS011;9287;49.456;11.064;2022-12-07T01:44:08;9.80;;;7.43;;
18322;SDS011;9287;49.456;11.064;2022-12-07T01:46:46;7.83;;;7.03;;
18322;SDS011;9287;49.456;11.064;2022-12-07T01:49:18;8.77;;;7.57;;
18322;SDS011;9287;49.456;11.064;2022-12-07T01:51:51;7.97;;;7.07;;
18322;SDS011;9287;49.456;11.064;2022-12-07T01:54:22;8.50;;;7.37;;
18322;SDS011;9287;49.456;11.064;2022-12-07T01:56:51;8.80;;;7.43;;
18322;SDS011;9287;49.456;11.064;2022-12-07T01:59:23;13.00;;;7.97;;
18322;SDS011;9287;49.456;11.064;2022-12-07T02:01:53;8.57;;;7.57;;
18322;SDS011;9287;49.456;11.064;2022-12-07T02:04:23;10.17;;;7.07;;
18322;SDS011;9287;49.456;11.064;2022-12-07T02:06:52;9.20;;;7.63;;
18322;SDS011;9287;49.456;11.064;2022-12-07T02:09:23;9.87;;;7.80;;
18322;SDS011;9287;49.456;11.064;2022-12-07T02:11:51;9.43;;;7.70;;
18322;SDS011;9287;49.456;11.064;2022-12-07T02:14:20;8.83;;;7.93;;
18322;SDS011;9287;49.456;11.064;2022-12-07T02:16:51;8.80;;;7.90;;
18322;SDS011;9287;49.456;11.064;2022-12-07T02:19:55;9.33;;;8.20;;
18322;SDS011;9287;49.456;11.064;2022-12-07T02:22:51;10.30;;;7.87;;
18322;SDS011;9287;49.456;11.064;2022-12-07T02:25:36;11.50;;;8.77;;
18322;SDS011;9287;49.456;11.064;2022-12-07T02:28:21;10.00;;;8.37;;
18322;SDS011;9287;49.456;11.064;2022-12-07T02:31:01;11.07;;;9.10;;
18322;SDS011;9287;49.456;11.064;2022-12-07T02:33:36;8.80;;;7.63;;
18322;SDS011;9287;49.456;11.064;2022-12-07T02:36:10;11.40;;;8.77;;
18322;SDS011;9287;49.456;11.064;2022-12-07T02:38:47;11.03;;;8.80;;
18322;SDS011;9287;49.456;11.064;2022-12-07T02:41:22;12.07;;;8.90;;
18322;SDS011;9287;49.456;11.064;2022-12-07T02:43:56;10.33;;;8.83;;
18322;SDS011;9287;49.456;11.064;2022-12-07T02:46:30;10.10;;;8.57;;
18322;SDS011;9287;49.456;11.064;2022-12-07T02:49:00;14.13;;;9.13;;
18322;SDS011;9287;49.456;11.064;2022-12-07T02:51:29;10.60;;;9.50;;
18322;SDS011;9287;49.456;11.064;2022-12-07T02:53:58;11.10;;;9.17;;
18322;SDS011;9287;49.456;11.064;2022-12-07T02:56:27;10.93;;;8.60;;
18322;SDS011;9287;49.456;11.064;2022-12-07T02:59:07;10.87;;;9.30;;
18322;SDS011;9287;49.456;11.064;2022-12-07T03:01:47;11.33;;;9.23;;
18322;SDS011;9287;49.456;11.064;2022-12-07T03:04:24;11.43;;;9.10;;
18322;SDS011;9287;49.456;11.064;2022-12-07T03:07:16;11.20;;;9.40;;
18322;SDS011;9287;49.456;11.064;2022-12-07T03:09:53;12.53;;;9.93;;
18322;SDS011;9287;49.456;11.064;2022-12-07T03:12:29;15.50;;;10.63;;
18322;SDS011;9287;49.456;11.064;2022-12-07T03:15:04;12.33;;;9.30;;
18322;SDS011;9287;49.456;11.064;2022-12-07T03:17:38;11.80;;;9.23;;
18322;SDS011;9287;49.456;11.064;2022-12-07T03:20:09;12.60;;;10.37;;
18322;SDS011;9287;49.456;11.064;2022-12-07T03:22:40;12.90;;;9.20;;
18322;SDS011;9287;49.456;11.064;2022-12-07T03:25:11;13.37;;;9.67;;
18322;SDS011;9287;49.456;11.064;2022-12-07T03:27:44;13.37;;;10.23;;
18322;SDS011;9287;49.456;11.064;2022-12-07T03:30:18;13.50;;;10.20;;
18322;SDS011;9287;49.456;11.064;2022-12-07T03:32:50;12.63;;;10.27;;
18322;SDS011;9287;49.456;11.064;2022-12-07T03:35:25;14.13;;;10.53;;
18322;SDS011;9287;49.456;11.064;2022-12-07T03:37:57;14.37;;;10.03;;
18322;SDS011;9287;49.456;11.064;2022-12-07T03:40:28;13.57;;;9.60;;
18322;SDS011;9287;49.456;11.064;2022-12-07T03:43:00;14.17;;;10.40;;
18322;SDS011;9287;49.456;11.064;2022-12-07T03:45:31;14.50;;;10.60;;
18322;SDS011;9287;49.456;11.064;2022-12-07T03:48:07;16.80;;;10.47;;
18322;SDS011;9287;49.456;11.064;2022-12-07T03:50:46;14.00;;;9.80;;
18322;SDS011;9287;49.456;11.064;2022-12-07T03:53:20;12.67;;;9.80;;
18322;SDS011;9287;49.456;11.064;2022-12-07T03:55:51;12.90;;;10.03;;
18322;SDS011;9287;49.456;11.064;2022-12-07T03:58:21;15.23;;;10.53;;
18322;SDS011;9287;49.456;11.064;2022-12-07T04:00:50;13.77;;;10.37;;
18322;SDS011;9287;49.456;11.064;2022-12-07T04:03:20;15.00;;;10.70;;
18322;SDS011;9287;49.456;11.064;2022-12-07T04:05:48;12.83;;;9.57;;
18322;SDS011;9287;49.456;11.064;2022-12-07T04:08:28;14.27;;;11.20;;
18322;SDS011;9287;49.456;11.064;2022-12-07T04:11:05;14.60;;;10.70;;
18322;SDS011;9287;49.456;11.064;2022-12-07T04:13:32;14.13;;;10.93;;
18322;SDS011;9287;49.456;11.064;2022-12-07T04:16:20;15.03;;;11.17;;
18322;SDS011;9287;49.456;11.064;2022-12-07T04:18:49;13.57;;;10.60;;
18322;SDS011;9287;49.456;11.064;2022-12-07T04:21:17;13.57;;;10.67;;
18322;SDS011;9287;49.456;11.064;2022-12-07T04:23:45;14.83;;;11.10;;
18322;SDS011;9287;49.456;11.064;2022-12-07T04:26:13;14.77;;;10.63;;
18322;SDS011;9287;49.456;11.064;2022-12-07T04:28:40;16.23;;;10.97;;
18322;SDS011;9287;49.456;11.064;2022-12-07T04:31:08;14.53;;;10.87;;
18322;SDS011;9287;49.456;11.064;2022-12-07T04:33:36;14.03;;;10.93;;
18322;SDS011;9287;49.456;11.064;2022-12-07T04:36:05;14.97;;;11.27;;
18322;SDS011;9287;49.456;11.064;2022-12-07T04:38:33;16.03;;;11.20;;
18322;SDS011;9287;49.456;11.064;2022-12-07T04:41:04;13.97;;;10.80;;
18322;SDS011;9287;49.456;11.064;2022-12-07T04:43:32;14.83;;;11.13;;
18322;SDS011;9287;49.456;11.064;2022-12-07T04:46:00;16.30;;;11.60;;
18322;SDS011;9287;49.456;11.064;2022-12-07T04:48:28;14.60;;;10.90;;
18322;SDS011;9287;49.456;11.064;2022-12-07T04:50:56;13.17;;;10.03;;
18322;SDS011;9287;49.456;11.064;2022-12-07T04:53:25;16.83;;;10.73;;
18322;SDS011;9287;49.456;11.064;2022-12-07T04:55:53;14.93;;;11.13;;
18322;SDS011;9287;49.456;11.064;2022-12-07T04:58:21;16.27;;;11.20;;
18322;SDS011;9287;49.456;11.064;2022-12-07T05:00:48;14.80;;;10.97;;
18322;SDS011;9287;49.456;11.064;2022-12-07T05:03:16;13.90;;;10.33;;
18322;SDS011;9287;49.456;11.064;2022-12-07T05:05:44;15.63;;;11.53;;
18322;SDS011;9287;49.456;11.064;2022-12-07T05:08:12;19.23;;;12.53;;
18322;SDS011;9287;49.456;11.064;2022-12-07T05:10:41;16.63;;;11.70;;
18322;SDS011;9287;49.456;11.064;2022-12-07T05:13:09;16.40;;;10.93;;
18322;SDS011;9287;49.456;11.064;2022-12-07T05:15:36;18.13;;;12.27;;
18322;SDS011;9287;49.456;11.064;2022-12-07T05:18:06;15.77;;;10.90;;
18322;SDS011;9287;49.456;11.064;2022-12-07T05:20:34;14.73;;;11.40;;
18322;SDS011;9287;49.456;11.064;2022-12-07T05:23:07;16.93;;;12.63;;
18322;SDS011;9287;49.456;11.064;2022-12-07T05:25:35;16.93;;;11.97;;
18322;SDS011;9287;49.456;11.064;2022-12-07T05:28:05;15.07;;;11.30;;
18322;SDS011;9287;49.456;11.064;2022-12-07T05:30:33;15.93;;;11.27;;
18322;SDS011;9287;49.456;11.064;2022-12-07T05:33:01;16.83;;;11.73;;
18322;SDS011;9287;49.456;11.064;2022-12-07T05:35:29;16.77;;;11.67;;
18322;SDS011;9287;49.456;11.064;2022-12-07T05:37:57;18.27;;;12.33;;
18322;SDS011;9287;49.456;11.064;2022-12-07T05:40:26;15.13;;;11.43;;
18322;SDS011;9287;49.456;11.064;2022-12-07T05:42:54;17.33;;;12.37;;
18322;SDS011;9287;49.456;11.064;2022-12-07T05:45:31;17.80;;;12.27;;
18322;SDS011;9287;49.456;11.064;2022-12-07T05:47:58;18.07;;;13.37;;
18322;SDS011;9287;49.456;11.064;2022-12-07T05:50:26;17.63;;;11.97;;
18322;SDS011;9287;49.456;11.064;2022-12-07T05:52:58;19.20;;;12.27;;
18322;SDS011;9287;49.456;11.064;2022-12-07T05:55:25;18.40;;;12.60;;
18322;SDS011;9287;49.456;11.064;2022-12-07T05:57:53;20.20;;;13.17;;
18322;SDS011;9287;49.456;11.064;2022-12-07T06:00:40;18.77;;;12.57;;
18322;SDS011;9287;49.456;11.064;2022-12-07T06:03:14;22.00;;;13.53;;
18322;SDS011;9287;49.456;11.064;2022-12-07T06:05:42;19.13;;;12.27;;
18322;SDS011;9287;49.456;11.064;2022-12-07T06:08:10;20.67;;;13.57;;
18322;SDS011;9287;49.456;11.064;2022-12-07T06:10:38;19.33;;;12.90;;
18322;SDS011;9287;49.456;11.064;2022-12-07T06:13:06;19.90;;;13.23;;
18322;SDS011;9287;49.456;11.064;2022-12-07T06:15:32;19.97;;;14.00;;
18322;SDS011;9287;49.456;11.064;2022-12-07T06:18:04;19.03;;;12.97;;
18322;SDS011;9287;49.456;11.064;2022-12-07T06:20:32;20.47;;;14.13;;
18322;SDS011;9287;49.456;11.064;2022-12-07T06:23:00;20.47;;;13.40;;
18322;SDS011;9287;49.456;11.064;2022-12-07T06:25:27;20.30;;;14.00;;
18322;SDS011;9287;49.456;11.064;2022-12-07T06:27:55;21.00;;;14.30;;
18322;SDS011;9287;49.456;11.064;2022-12-07T06:30:23;21.87;;;14.37;;
18322;SDS011;9287;49.456;11.064;2022-12-07T06:32:51;21.43;;;14.73;;
18322;SDS011;9287;49.456;11.064;2022-12-07T06:35:20;22.17;;;14.07;;
18322;SDS011;9287;49.456;11.064;2022-12-07T06:37:47;22.50;;;15.03;;
18322;SDS011;9287;49.456;11.064;2022-12-07T06:40:15;22.20;;;15.00;;
18322;SDS011;9287;49.456;11.064;2022-12-07T06:42:43;21.60;;;14.80;;
18322;SDS011;9287;49.456;11.064;2022-12-07T06:45:10;22.33;;;14.60;;
18322;SDS011;9287;49.456;11.064;2022-12-07T06:47:38;24.03;;;15.27;;
18322;SDS011;9287;49.456;11.064;2022-12-07T06:50:09;19.97;;;13.43;;
18322;SDS011;9287;49.456;11.064;2022-12-07T06:52:38;22.00;;;14.40;;
18322;SDS011;9287;49.456;11.064;2022-12-07T06:55:06;20.00;;;13.93;;
18322;SDS011;9287;49.456;11.064;2022-12-07T06:57:36;19.37;;;13.40;;
18322;SDS011;9287;49.456;11.064;2022-12-07T07:00:05;22.93;;;14.17;;
18322;SDS011;9287;49.456;11.064;2022-12-07T07:02:33;21.73;;;12.80;;
18322;SDS011;9287;49.456;11.064;2022-12-07T07:05:01;22.03;;;14.30;;
18322;SDS011;9287;49.456;11.064;2022-12-07T07:07:29;21.83;;;14.20;;
18322;SDS011;9287;49.456;11.064;2022-12-07T07:10:08;22.07;;;15.70;;
18322;SDS011;9287;49.456;11.064;2022-12-07T07:12:36;22.03;;;14.10;;
18322;SDS011;9287;49.456;11.064;2022-12-07T07:15:05;20.37;;;14.00;;
18322;SDS011;9287;49.456;11.064;2022-12-07T07:17:33;20.63;;;13.97;;
18322;SDS011;9287;49.456;11.064;2022-12-07T07:20:01;20.73;;;14.77;;
18322;SDS011;9287;49.456;11.064;2022-12-07T07:22:29;19.17;;;13.80;;
18322;SDS011;9287;49.456;11.064;2022-12-07T07:24:56;21.83;;;13.50;;
18322;SDS011;9287;49.456;11.064;2022-12-07T07:27:25;21.57;;;15.17;;
18322;SDS011;9287;49.456;11.064;2022-12-07T07:29:53;24.87;;;15.17;;
18322;SDS011;9287;49.456;11.064;2022-12-07T07:32:21;22.37;;;15.43;;
18322;SDS011;9287;49.456;11.064;2022-12-07T07:34:48;20.47;;;15.20;;
18322;SDS011;9287;49.456;11.064;2022-12-07T07:37:16;23.23;;;15.13;;
18322;SDS011;9287;49.456;11.064;2022-12-07T07:39:47;20.13;;;14.47;;
18322;SDS011;9287;49.456;11.064;2022-12-07T07:42:15;20.97;;;14.10;;
18322;SDS011;9287;49.456;11.064;2022-12-07T07:44:44;20.87;;;14.17;;
18322;SDS011;9287;49.456;11.064;2022-12-07T07:47:12;23.37;;;16.30;;
18322;SDS011;9287;49.456;11.064;2022-12-07T07:49:39;22.60;;;14.73;;
18322;SDS011;9287;49.456;11.064;2022-12-07T07:52:13;24.30;;;15.53;;
18322;SDS011;9287;49.456;11.064;2022-12-07T07:54:41;21.30;;;14.77;;
18322;SDS011;9287;49.456;11.064;2022-12-07T07:57:08;24.17;;;15.30;;
18322;SDS011;9287;49.456;11.064;2022-12-07T07:59:36;24.73;;;15.10;;
18322;SDS011;9287;49.456;11.064;2022-12-07T08:02:05;26.23;;;16.17;;
18322;SDS011;9287;49.456;11.064;2022-12-07T08:04:33;23.83;;;15.83;;
18322;SDS011;9287;49.456;11.064;2022-12-07T08:07:01;23.03;;;15.60;;
18322;SDS011;9287;49.456;11.064;2022-12-07T08:09:28;23.03;;;15.27;;
18322;SDS011;9287;49.456;11.064;2022-12-07T08:11:56;21.60;;;15.17;;
18322;SDS011;9287;49.456;11.064;2022-12-07T08:14:24;23.87;;;14.53;;
18322;SDS011;9287;49.456;11.064;2022-12-07T08:16:53;24.07;;;16.07;;
18322;SDS011;9287;49.456;11.064;2022-12-07T08:19:22;25.60;;;16.23;;
18322;SDS011;9287;49.456;11.064;2022-12-07T08:21:50;22.53;;;14.63;;
18322;SDS011;9287;49.456;11.064;2022-12-07T08:24:18;24.80;;;16.30;;
18322;SDS011;9287;49.456;11.064;2022-12-07T08:26:46;22.17;;;14.70;;
18322;SDS011;9287;49.456;11.064;2022-12-07T08:29:14;24.00;;;15.13;;
18322;SDS011;9287;49.456;11.064;2022-12-07T08:31:42;23.90;;;15.37;;
18322;SDS011;9287;49.456;11.064;2022-12-07T08:34:10;26.03;;;16.77;;
18322;SDS011;9287;49.456;11.064;2022-12-07T08:36:39;24.53;;;17.00;;
18322;SDS011;9287;49.456;11.064;2022-12-07T08:39:07;25.30;;;16.63;;
18322;SDS011;9287;49.456;11.064;2022-12-07T08:41:55;23.70;;;16.03;;
18322;SDS011;9287;49.456;11.064;2022-12-07T08:44:22;26.20;;;16.10;;
18322;SDS011;9287;49.456;11.064;2022-12-07T08:46:51;20.10;;;14.77;;
18322;SDS011;9287;49.456;11.064;2022-12-07T08:49:23;19.53;;;13.80;;
18322;SDS011;9287;49.456;11.064;2022-12-07T08:51:56;23.13;;;14.80;;
18322;SDS011;9287;49.456;11.064;2022-12-07T08:54:24;20.70;;;14.13;;
18322;SDS011;9287;49.456;11.064;2022-12-07T08:56:52;23.37;;;14.90;;
18322;SDS011;9287;49.456;11.064;2022-12-07T08:59:24;21.67;;;14.30;;
18322;SDS011;9287;49.456;11.064;2022-12-07T09:01:53;20.77;;;13.80;;
18322;SDS011;9287;49.456;11.064;2022-12-07T09:04:21;19.63;;;12.23;;
18322;SDS011;9287;49.456;11.064;2022-12-07T09:06:49;17.93;;;12.63;;
18322;SDS011;9287;49.456;11.064;2022-12-07T09:09:18;22.17;;;12.70;;
18322;SDS011;9287;49.456;11.064;2022-12-07T09:11:46;19.43;;;12.67;;
18322;SDS011;9287;49.456;11.064;2022-12-07T09:14:14;17.60;;;12.30;;
18322;SDS011;9287;49.456;11.064;2022-12-07T09:16:42;17.17;;;11.83;;
18322;SDS011;9287;49.456;11.064;2022-12-07T09:19:09;18.57;;;12.23;;
18322;SDS011;9287;49.456;11.064;2022-12-07T09:21:37;17.90;;;11.87;;
18322;SDS011;9287;49.456;11.064;2022-12-07T09:24:05;16.80;;;11.10;;
18322;SDS011;9287;49.456;11.064;2022-12-07T09:26:35;18.80;;;12.03;;
18322;SDS011;9287;49.456;11.064;2022-12-07T09:29:04;17.87;;;11.67;;
18322;SDS011;9287;49.456;11.064;2022-12-07T09:31:31;15.83;;;10.77;;
18322;SDS011;9287;49.456;11.064;2022-12-07T09:33:59;14.57;;;10.07;;
18322;SDS011;9287;49.456;11.064;2022-12-07T09:36:28;14.90;;;9.67;;
18322;SDS011;9287;49.456;11.064;2022-12-07T09:38:56;19.93;;;11.10;;
18322;SDS011;9287;49.456;11.064;2022-12-07T09:41:24;15.27;;;10.13;;
18322;SDS011;9287;49.456;11.064;2022-12-07T09:43:57;15.40;;;10.47;;
18322;SDS011;9287;49.456;11.064;2022-12-07T09:46:31;18.00;;;10.50;;
18322;SDS011;9287;49.456;11.064;2022-12-07T09:49:03;14.83;;;9.77;;
18322;SDS011;9287;49.456;11.064;2022-12-07T09:51:31;13.00;;;9.50;;
18322;SDS011;9287;49.456;11.064;2022-12-07T09:53:59;13.87;;;10.03;;
18322;SDS011;9287;49.456;11.064;2022-12-07T09:56:28;15.23;;;9.77;;
18322;SDS011;9287;49.456;11.064;2022-12-07T09:58:59;13.97;;;9.80;;
18322;SDS011;9287;49.456;11.064;2022-12-07T10:01:30;13.83;;;8.77;;
18322;SDS011;9287;49.456;11.064;2022-12-07T10:04:00;15.03;;;9.40;;
18322;SDS011;9287;49.456;11.064;2022-12-07T10:06:36;17.17;;;10.63;;
18322;SDS011;9287;49.456;11.064;2022-12-07T10:09:08;15.50;;;10.40;;
18322;SDS011;9287;49.456;11.064;2022-12-07T10:14:32;16.37;;;10.37;;
18322;SDS011;9287;49.456;11.064;2022-12-07T10:17:29;16.17;;;11.33;;
18322;SDS011;9287;49.456;11.064;2022-12-07T10:23:00;17.80;;;12.60;;
18322;SDS011;9287;49.456;11.064;2022-12-07T10:25:30;18.17;;;11.27;;
18322;SDS011;9287;49.456;11.064;2022-12-07T10:28:00;15.67;;;10.67;;
18322;SDS011;9287;49.456;11.064;2022-12-07T10:30:31;17.23;;;11.53;;
18322;SDS011;9287;49.456;11.064;2022-12-07T10:33:00;12.03;;;9.03;;
18322;SDS011;9287;49.456;11.064;2022-12-07T10:35:28;15.27;;;11.10;;
18322;SDS011;9287;49.456;11.064;2022-12-07T10:37:58;17.43;;;12.00;;
18322;SDS011;9287;49.456;11.064;2022-12-07T10:40:28;13.77;;;10.40;;
18322;SDS011;9287;49.456;11.064;2022-12-07T10:43:07;15.03;;;10.10;;
18322;SDS011;9287;49.456;11.064;2022-12-07T10:45:58;13.50;;;9.77;;
18322;SDS011;9287;49.456;11.064;2022-12-07T10:48:49;15.40;;;10.40;;
18322;SDS011;9287;49.456;11.064;2022-12-07T10:51:27;11.43;;;9.43;;
18322;SDS011;9287;49.456;11.064;2022-12-07T10:54:09;13.67;;;9.00;;
18322;SDS011;9287;49.456;11.064;2022-12-07T10:56:44;11.53;;;9.27;;
18322;SDS011;9287;49.456;11.064;2022-12-07T10:59:37;12.70;;;9.83;;
18322;SDS011;9287;49.456;11.064;2022-12-07T11:02:20;13.50;;;9.87;;
18322;SDS011;9287;49.456;11.064;2022-12-07T11:04:59;14.83;;;9.70;;
18322;SDS011;9287;49.456;11.064;2022-12-07T11:07:38;13.97;;;9.27;;
18322;SDS011;9287;49.456;11.064;2022-12-07T11:10:22;13.67;;;9.30;;
18322;SDS011;9287;49.456;11.064;2022-12-07T11:13:01;12.00;;;8.80;;
18322;SDS011;9287;49.456;11.064;2022-12-07T11:15:44;10.03;;;8.30;;
18322;SDS011;9287;49.456;11.064;2022-12-07T11:18:29;11.83;;;9.10;;
18322;SDS011;9287;49.456;11.064;2022-12-07T11:21:06;13.93;;;10.50;;
18322;SDS011;9287;49.456;11.064;2022-12-07T11:23:45;13.33;;;10.57;;
18322;SDS011;9287;49.456;11.064;2022-12-07T11:26:18;12.73;;;9.57;;
18322;SDS011;9287;49.456;11.064;2022-12-07T11:28:58;12.90;;;8.93;;
18322;SDS011;9287;49.456;11.064;2022-12-07T11:31:44;14.57;;;10.33;;
18322;SDS011;9287;49.456;11.064;2022-12-07T11:34:27;17.70;;;10.57;;
18322;SDS011;9287;49.456;11.064;2022-12-07T11:37:05;13.63;;;9.57;;
18322;SDS011;9287;49.456;11.064;2022-12-07T11:39:39;15.57;;;9.90;;
18322;SDS011;9287;49.456;11.064;2022-12-07T11:42:13;14.80;;;10.17;;
18322;SDS011;9287;49.456;11.064;2022-12-07T11:44:46;14.50;;;9.77;;
18322;SDS011;9287;49.456;11.064;2022-12-07T11:47:20;15.93;;;10.13;;
18322;SDS011;9287;49.456;11.064;2022-12-07T11:49:54;16.23;;;10.83;;
18322;SDS011;9287;49.456;11.064;2022-12-07T11:52:32;13.90;;;10.17;;
18322;SDS011;9287;49.456;11.064;2022-12-07T11:55:15;14.70;;;9.80;;
18322;SDS011;9287;49.456;11.064;2022-12-07T11:57:48;13.20;;;10.00;;
18322;SDS011;9287;49.456;11.064;2022-12-07T12:00:20;18.63;;;11.37;;
18322;SDS011;9287;49.456;11.064;2022-12-07T12:02:49;15.10;;;9.80;;
18322;SDS011;9287;49.456;11.064;2022-12-07T12:05:24;13.27;;;9.40;;
18322;SDS011;9287;49.456;11.064;2022-12-07T12:07:54;11.67;;;9.27;;
18322;SDS011;9287;49.456;11.064;2022-12-07T12:10:55;11.87;;;9.20;;
18322;SDS011;9287;49.456;11.064;2022-12-07T12:13:37;14.03;;;10.13;;
18322;SDS011;9287;49.456;11.064;2022-12-07T12:19:37;18.00;;;9.60;;
18322;SDS011;9287;49.456;11.064;2022-12-07T12:22:12;14.97;;;9.93;;
18322;SDS011;9287;49.456;11.064;2022-12-07T12:24:43;16.07;;;10.27;;
18322;SDS011;9287;49.456;11.064;2022-12-07T12:27:17;13.40;;;9.00;;
18322;SDS011;9287;49.456;11.064;2022-12-07T12:29:52;12.87;;;8.73;;
18322;SDS011;9287;49.456;11.064;2022-12-07T12:32:23;11.60;;;9.53;;
18322;SDS011;9287;49.456;11.064;2022-12-07T12:35:27;12.37;;;9.93;;
18322;SDS011;9287;49.456;11.064;2022-12-07T12:40:56;11.67;;;8.10;;
18322;SDS011;9287;49.456;11.064;2022-12-07T12:43:43;12.77;;;9.13;;
18322;SDS011;9287;49.456;11.064;2022-12-07T12:46:37;12.77;;;9.27;;
18322;SDS011;9287;49.456;11.064;2022-12-07T12:49:30;14.23;;;9.27;;
18322;SDS011;9287;49.456;11.064;2022-12-07T12:52:27;11.57;;;8.90;;
18322;SDS011;9287;49.456;11.064;2022-12-07T12:55:18;13.40;;;9.53;;
18322;SDS011;9287;49.456;11.064;2022-12-07T13:04:01;14.97;;;10.10;;
18322;SDS011;9287;49.456;11.064;2022-12-07T13:06:41;14.17;;;10.03;;
18322;SDS011;9287;49.456;11.064;2022-12-07T13:09:16;13.57;;;9.43;;
18322;SDS011;9287;49.456;11.064;2022-12-07T13:11:50;17.57;;;10.40;;
18322;SDS011;9287;49.456;11.064;2022-12-07T13:20:51;16.90;;;10.20;;
18322;SDS011;9287;49.456;11.064;2022-12-07T13:23:22;13.17;;;10.10;;
18322;SDS011;9287;49.456;11.064;2022-12-07T13:25:56;12.77;;;10.43;;
18322;SDS011;9287;49.456;11.064;2022-12-07T13:28:45;13.00;;;9.63;;
18322;SDS011;9287;49.456;11.064;2022-12-07T13:31:18;15.40;;;10.10;;
18322;SDS011;9287;49.456;11.064;2022-12-07T13:33:54;12.07;;;9.77;;
18322;SDS011;9287;49.456;11.064;2022-12-07T13:36:22;12.07;;;9.17;;
18322;SDS011;9287;49.456;11.064;2022-12-07T13:38:53;12.90;;;9.23;;
18322;SDS011;9287;49.456;11.064;2022-12-07T13:41:23;12.97;;;9.40;;
18322;SDS011;9287;49.456;11.064;2022-12-07T13:43:55;14.20;;;8.27;;
18322;SDS011;9287;49.456;11.064;2022-12-07T13:46:40;12.53;;;9.53;;
18322;SDS011;9287;49.456;11.064;2022-12-07T13:49:19;11.17;;;8.03;;
18322;SDS011;9287;49.456;11.064;2022-12-07T13:51:48;12.57;;;8.37;;
18322;SDS011;9287;49.456;11.064;2022-12-07T13:54:17;9.60;;;7.83;;
18322;SDS011;9287;49.456;11.064;2022-12-07T13:56:47;12.03;;;8.33;;
18322;SDS011;9287;49.456;11.064;2022-12-07T13:59:19;9.53;;;7.97;;
18322;SDS011;9287;49.456;11.064;2022-12-07T14:01:50;11.53;;;7.70;;
18322;SDS011;9287;49.456;11.064;2022-12-07T14:04:26;13.07;;;8.30;;
18322;SDS011;9287;49.456;11.064;2022-12-07T14:06:58;11.77;;;9.10;;
18322;SDS011;9287;49.456;11.064;2022-12-07T14:09:27;15.10;;;10.17;;
18322;SDS011;9287;49.456;11.064;2022-12-07T14:11:56;16.33;;;11.10;;
18322;SDS011;9287;49.456;11.064;2022-12-07T14:14:27;15.80;;;11.03;;
18322;SDS011;9287;49.456;11.064;2022-12-07T14:17:08;16.00;;;10.10;;
18322;SDS011;9287;49.456;11.064;2022-12-07T14:19:49;14.53;;;10.10;;
18322;SDS011;9287;49.456;11.064;2022-12-07T14:22:20;16.70;;;10.80;;
18322;SDS011;9287;49.456;11.064;2022-12-07T14:24:51;13.63;;;9.83;;
18322;SDS011;9287;49.456;11.064;2022-12-07T14:27:29;15.53;;;10.87;;
18322;SDS011;9287;49.456;11.064;2022-12-07T14:30:01;15.27;;;9.67;;
18322;SDS011;9287;49.456;11.064;2022-12-07T14:32:29;13.37;;;9.47;;
18322;SDS011;9287;49.456;11.064;2022-12-07T14:34:59;15.83;;;9.93;;
18322;SDS011;9287;49.456;11.064;2022-12-07T14:37:29;11.40;;;8.87;;
18322;SDS011;9287;49.456;11.064;2022-12-07T14:39:57;14.73;;;9.77;;
18322;SDS011;9287;49.456;11.064;2022-12-07T14:42:27;12.80;;;9.50;;
18322;SDS011;9287;49.456;11.064;2022-12-07T14:44:55;12.23;;;9.53;;
18322;SDS011;9287;49.456;11.064;2022-12-07T14:47:26;13.17;;;9.83;;
18322;SDS011;9287;49.456;11.064;2022-12-07T14:50:14;11.17;;;8.40;;
18322;SDS011;9287;49.456;11.064;2022-12-07T14:52:44;12.00;;;7.23;;
18322;SDS011;9287;49.456;11.064;2022-12-07T14:55:35;7.57;;;6.53;;
18322;SDS011;9287;49.456;11.064;2022-12-07T14:58:03;7.70;;;6.63;;
18322;SDS011;9287;49.456;11.064;2022-12-07T15:00:30;9.00;;;6.60;;
18322;SDS011;9287;49.456;11.064;2022-12-07T15:03:00;8.83;;;6.93;;
18322;SDS011;9287;49.456;11.064;2022-12-07T15:05:28;9.63;;;7.20;;
18322;SDS011;9287;49.456;11.064;2022-12-07T15:07:56;9.37;;;7.00;;
18322;SDS011;9287;49.456;11.064;2022-12-07T15:10:24;10.63;;;7.23;;
18322;SDS011;9287;49.456;11.064;2022-12-07T15:12:55;9.80;;;7.50;;
18322;SDS011;9287;49.456;11.064;2022-12-07T15:15:49;11.40;;;8.63;;
18322;SDS011;9287;49.456;11.064;2022-12-07T15:18:20;15.10;;;10.83;;
18322;SDS011;9287;49.456;11.064;2022-12-07T15:20:49;17.90;;;10.53;;
18322;SDS011;9287;49.456;11.064;2022-12-07T15:23:17;17.43;;;11.20;;
18322;SDS011;9287;49.456;11.064;2022-12-07T15:25:46;16.00;;;11.33;;